»·PEaware :: ASA744 KSFO-KSLC

ASA744 :: KSFO-KSLC

FLIGHT INFORMATION

Flight Status: Arrived
Operator:
Alaska Airlines
More flights by this operator :: More flights under this callsign
Pilot: Cooper L. (8467)
Aircraft: AIRBUS A320
(A320)
More flights by this aircraft type
Origin: KSFO San Francisco Intl
United States
Destination: KSLC Salt Lake City Intl
United States
More flights between these airports :: More routes between these airports
Route: +TRUKN2 MOGEE Q124 BVL WAATS5
File this flight plan on PilotEdge
Remarks:
Altitude:
(Current/Filed)
39,000ft
Speed:
(Current/Filed)
490kts
Departed: 28-Apr-18 04:35 PM
Arrived: 28-Apr-18 05:52 PM
Distance/Time
Traveled:
519nm/1:17
Distance/Time
To Go:
Arrived

Flight Plot

Page will automatically refresh every two minutes.

Flight plan parsing failed; only flown route is shown


Map Options




Map Legend


Flown Route
Filed Route
Departure Airport
Arrival Airport
Navaid (VOR, NDB)
Fix

Horizontal Profiles

Position Reports

Time Latitude Longitude Heading Altitude Ground
Speed
28-Apr-18 15:28 37.617856 -122.380643 257 32ft 0kts
28-Apr-18 15:29 37.617856 -122.380643 257 32ft 0kts
28-Apr-18 15:30 37.617856 -122.380643 257 32ft 0kts
28-Apr-18 15:31 37.617856 -122.380643 257 32ft 0kts
28-Apr-18 15:32 37.617856 -122.380643 257 32ft 0kts
28-Apr-18 15:33 37.617856 -122.380643 257 32ft 0kts
28-Apr-18 15:34 37.617856 -122.380643 257 32ft 0kts
28-Apr-18 15:35 37.617856 -122.380643 257 32ft 0kts
28-Apr-18 15:36 37.617856 -122.380643 257 32ft 0kts
28-Apr-18 15:37 37.617856 -122.380643 257 32ft 0kts
28-Apr-18 15:38 37.617856 -122.380643 257 32ft 0kts
28-Apr-18 15:39 37.617856 -122.380643 257 32ft 0kts
28-Apr-18 15:40 37.617856 -122.380643 257 32ft 0kts
28-Apr-18 15:41 37.617856 -122.380643 257 32ft 0kts
28-Apr-18 15:42 37.617856 -122.380643 257 32ft 0kts
28-Apr-18 15:43 37.617856 -122.380643 257 32ft 0kts
28-Apr-18 15:44 37.617856 -122.380643 257 32ft 0kts
28-Apr-18 15:45 37.617856 -122.380643 257 32ft 0kts
28-Apr-18 15:46 37.617857 -122.380642 257 32ft 0kts
28-Apr-18 15:47 37.617857 -122.380642 257 32ft 0kts
28-Apr-18 15:48 37.617857 -122.380642 257 32ft 0kts
28-Apr-18 15:49 37.617857 -122.380642 257 32ft 0kts
28-Apr-18 15:50 37.617857 -122.380642 257 32ft 0kts
28-Apr-18 15:51 37.617857 -122.380642 257 32ft 0kts
28-Apr-18 15:52 37.617857 -122.380642 257 32ft 0kts
28-Apr-18 15:53 37.617857 -122.380642 257 32ft 0kts
28-Apr-18 15:54 37.617857 -122.380642 257 32ft 0kts
28-Apr-18 15:55 37.617857 -122.380642 257 32ft 0kts
28-Apr-18 15:56 37.617857 -122.380642 257 32ft 0kts
28-Apr-18 15:57 37.617857 -122.380642 257 32ft 0kts
28-Apr-18 15:58 37.617857 -122.380642 257 32ft 0kts
28-Apr-18 15:59 37.617857 -122.380642 257 32ft 0kts
28-Apr-18 16:00 37.617857 -122.380642 257 32ft 0kts
28-Apr-18 16:01 37.617857 -122.380642 257 32ft 0kts
28-Apr-18 16:02 37.617857 -122.380642 257 32ft 0kts
28-Apr-18 16:03 37.617857 -122.380642 257 32ft 0kts
28-Apr-18 16:04 37.617857 -122.380642 257 32ft 0kts
28-Apr-18 16:05 37.617857 -122.380642 257 32ft 0kts
28-Apr-18 16:06 37.617857 -122.380642 257 32ft 0kts
28-Apr-18 16:07 37.617857 -122.380642 257 32ft 0kts
28-Apr-18 16:08 37.617857 -122.380642 257 32ft 0kts
28-Apr-18 16:09 37.617857 -122.380642 257 32ft 0kts
28-Apr-18 16:10 37.617857 -122.380642 257 32ft 0kts
28-Apr-18 16:11 37.617857 -122.380642 257 32ft 0kts
28-Apr-18 16:12 37.617857 -122.380642 257 32ft 0kts
28-Apr-18 16:13 37.617857 -122.380642 257 32ft 0kts
28-Apr-18 16:14 37.617857 -122.380642 257 32ft 0kts
28-Apr-18 16:15 37.617857 -122.380642 257 32ft 0kts
28-Apr-18 16:16 37.617857 -122.380642 257 32ft 0kts
28-Apr-18 16:17 37.617857 -122.380642 257 32ft 0kts
28-Apr-18 16:18 37.617857 -122.380642 257 32ft 0kts
28-Apr-18 16:19 37.617857 -122.380642 257 32ft 0kts
28-Apr-18 16:20 37.617857 -122.380642 257 32ft 0kts
28-Apr-18 16:21 37.617976 -122.379935 259 32ft 2kts
28-Apr-18 16:22 37.618289 -122.379710 153 32ft 1kts
28-Apr-18 16:23 37.618302 -122.379719 154 32ft 0kts
28-Apr-18 16:24 37.618302 -122.379719 154 32ft 0kts
28-Apr-18 16:25 37.618302 -122.379719 154 32ft 0kts
28-Apr-18 16:26 37.616165 -122.379930 208 32ft 16kts
28-Apr-18 16:27 37.611096 -122.383305 208 32ft 21kts
28-Apr-18 16:28 37.608521 -122.384000 116 32ft 0kts
28-Apr-18 16:29 37.608227 -122.383247 109 32ft 17kts
28-Apr-18 16:30 37.613750 -122.380261 273 29ft 11kts
28-Apr-18 16:31 37.613743 -122.380330 259 29ft 0kts
28-Apr-18 16:32 37.613891 -122.381404 238 31ft 19kts
28-Apr-18 16:33 37.608378 -122.383635 116 32ft 14kts
28-Apr-18 16:34 37.634797 -122.363973 34 1172ft 194kts
28-Apr-18 16:35 37.674661 -122.298672 55 4834ft 260kts
28-Apr-18 16:36 37.714617 -122.221221 50 8828ft 276kts
28-Apr-18 16:37 37.775327 -122.162367 30 12471ft 287kts
28-Apr-18 16:38 37.844414 -122.099911 29 15403ft 327kts
28-Apr-18 16:39 37.913198 -122.018902 42 18648ft 356kts
28-Apr-18 16:40 37.979536 -121.921083 41 21112ft 390kts
28-Apr-18 16:41 38.055280 -121.808955 42 22095ft 447kts
28-Apr-18 16:42 38.137512 -121.686696 41 23797ft 465kts
28-Apr-18 16:43 38.221894 -121.560863 41 25323ft 476kts
28-Apr-18 16:44 38.307981 -121.431957 40 26729ft 486kts
28-Apr-18 16:45 38.393477 -121.297318 43 27921ft 499kts
28-Apr-18 16:46 38.479773 -121.157875 43 28998ft 508kts
28-Apr-18 16:47 38.567525 -121.015450 45 29852ft 518kts
28-Apr-18 16:48 38.656320 -120.870659 45 30972ft 519kts
28-Apr-18 16:49 38.743940 -120.727179 44 32185ft 514kts
28-Apr-18 16:50 38.830457 -120.584849 43 33452ft 507kts
28-Apr-18 16:51 38.914741 -120.445610 44 34411ft 505kts
28-Apr-18 16:52 38.999938 -120.304208 47 35079ft 508kts
28-Apr-18 16:53 39.085658 -120.161307 48 35090ft 505kts
28-Apr-18 16:54 39.169614 -120.020772 48 35107ft 501kts
28-Apr-18 16:55 39.253569 -119.879589 48 35079ft 495kts
28-Apr-18 16:56 39.337358 -119.738042 48 35027ft 505kts
28-Apr-18 16:57 39.421774 -119.594794 48 35037ft 506kts
28-Apr-18 16:58 39.506599 -119.450235 48 35029ft 506kts
28-Apr-18 16:59 39.590988 -119.305746 49 35029ft 506kts
28-Apr-18 17:00 39.675193 -119.160923 49 35001ft 506kts
28-Apr-18 17:01 39.759556 -119.015147 49 34979ft 506kts
28-Apr-18 17:02 39.843822 -118.868860 51 34993ft 508kts
28-Apr-18 17:03 39.918506 -118.713995 61 34991ft 508kts
28-Apr-18 17:04 39.984601 -118.551716 61 34992ft 508kts
28-Apr-18 17:05 40.049567 -118.391369 61 34991ft 508kts
28-Apr-18 17:06 40.113228 -118.233394 62 34991ft 508kts
28-Apr-18 17:07 40.178421 -118.070743 62 34982ft 508kts
28-Apr-18 17:08 40.227574 -117.899030 73 34985ft 508kts
28-Apr-18 17:09 40.268626 -117.722827 73 34990ft 508kts
28-Apr-18 17:10 40.309524 -117.545908 73 34987ft 508kts
28-Apr-18 17:11 40.350029 -117.369285 73 34963ft 508kts
28-Apr-18 17:12 40.390062 -117.193321 74 34963ft 508kts
28-Apr-18 17:13 40.430042 -117.016211 74 34963ft 510kts
28-Apr-18 17:14 40.470180 -116.836960 75 34963ft 513kts
28-Apr-18 17:15 40.509905 -116.658156 75 34963ft 512kts
28-Apr-18 17:16 40.542786 -116.509036 75 34963ft 512kts
28-Apr-18 17:17 40.572249 -116.329255 87 34958ft 508kts
28-Apr-18 17:18 40.585842 -116.145290 87 34953ft 508kts
28-Apr-18 17:19 40.599375 -115.960142 87 34954ft 508kts
28-Apr-18 17:20 40.612981 -115.781266 85 34954ft 509kts
28-Apr-18 17:21 40.638322 -115.566286 87 34956ft 508kts
28-Apr-18 17:22 40.647004 -115.381418 88 34953ft 508kts
28-Apr-18 17:23 40.655254 -115.228550 89 34954ft 507kts
28-Apr-18 17:24 40.665194 -115.043916 91 34957ft 501kts
28-Apr-18 17:25 40.674629 -114.864151 92 34911ft 490kts
28-Apr-18 17:26 40.683712 -114.684656 92 34837ft 492kts
28-Apr-18 17:27 40.692548 -114.505473 92 34844ft 491kts
28-Apr-18 17:28 40.700780 -114.333318 93 34844ft 488kts
28-Apr-18 17:29 40.708874 -114.158091 93 34844ft 488kts
28-Apr-18 17:30 40.716817 -113.980437 93 34844ft 488kts
28-Apr-18 17:31 40.724513 -113.802043 93 34845ft 488kts
28-Apr-18 17:32 40.726034 -113.624487 96 34550ft 484kts
28-Apr-18 17:33 40.725688 -113.447228 96 33519ft 486kts
28-Apr-18 17:34 40.725085 -113.269169 96 30850ft 487kts
28-Apr-18 17:35 40.724273 -113.103964 94 28020ft 492kts
28-Apr-18 17:36 40.723112 -112.923805 94 24768ft 495kts
28-Apr-18 17:37 40.721721 -112.744896 94 21768ft 486kts
28-Apr-18 17:38 40.720058 -112.569455 94 18717ft 474kts
28-Apr-18 17:39 40.741202 -112.400401 80 15880ft 463kts
28-Apr-18 17:40 40.764968 -112.241219 91 12558ft 428kts
28-Apr-18 17:41 40.732026 -112.105903 139 12025ft 371kts
28-Apr-18 17:42 40.643463 -112.079663 177 12026ft 311kts
28-Apr-18 17:43 40.557953 -112.069383 178 12065ft 292kts
28-Apr-18 17:44 40.503021 -112.007322 103 10912ft 309kts
28-Apr-18 17:45 40.497783 -111.896657 67 9499ft 310kts
28-Apr-18 17:46 40.565540 -111.874650 318 8124ft 299kts
28-Apr-18 17:47 40.623654 -111.945952 323 5955ft 249kts
28-Apr-18 17:48 40.680063 -111.961512 352 5562ft 183kts
28-Apr-18 17:49 40.724730 -111.966945 344 5126ft 133kts
28-Apr-18 17:50 40.759636 -111.971524 345 4523ft 124kts
28-Apr-18 17:51 40.784923 -111.974448 357 4236ft 12kts
28-Apr-18 17:52 40.785535 -111.978008 229 4236ft 3kts
28-Apr-18 17:53 40.785557 -111.977974 229 4236ft 0kts
28-Apr-18 17:54 40.785557 -111.977974 229 4236ft 0kts
28-Apr-18 17:55 40.785557 -111.977974 229 4236ft 0kts
28-Apr-18 17:56 40.785557 -111.977974 229 4236ft 0kts
28-Apr-18 17:57 40.785557 -111.977974 229 4236ft 0kts
28-Apr-18 17:58 40.785557 -111.977974 229 4236ft 0kts

Navigation Log

Ident Type
Flight plan parsing failed, navigation log unavailable